Morses Mills, Vermont
Current Conditions -  °F | °C
As of 8:51 AM on Wednesday 28 Jan 2015 (Local Time) from KMPV Reporting Station
Overcast Overcast  
Wind Chill: -7°   Ceiling: 6000
Heat Index:   Visibility: 10mi
Dew Point: -2°   Wind: 8mph
Humidity: 69%   Direction: 330°NNW
Pressure: 30.02"   Gusts: NA
Location:  44.3801°N, 72.0925°W
Report Text: KMPV 281351Z AUTO 33007KT 10SM FEW028 BKN060 OVC085 M14/M19 A3002 RMK AO2 SLP194 T11441189
Loading
Personal Weather Stations






























Interactive Weather Map New forecast layout! Learn more

10-Day Weather Forecast

Advertisements
Track Severe Weather on mobile